• Join FlightAware (Why Join?)
  • Login
  • US Flag 
09:00AM EDT


 

Airport Tracker/Info


-or-


 

Live Flight TrackerFlight Track Log ✈ FLG3861 ✈ 22-Sep-2013 ✈ KDTW - KBGM

Flight Track Log - Related Links

Times and Time Zones

All times are in EDT time to prevent confusion due to time zone crossing. See the FLG3861 flight status page for this flight to view local times or setup timezone preferences in your user account.

Time Position Orientation Groundspeed Altitude Reporting Facility
EDT Latitude Longitude Course Direction KTS MPH feet Rate Location/Type
09:39PM 42.2261 -83.3531 33° Northeast 148 170 1,400  Level Cleveland Center
09:40PM 42.2372 -83.3433 33° Northeast 157 181 2,000 1,920 Climbing Cleveland Center
09:41PM 42.2872 -83.2939 36° Northeast 229 264 4,200 1,680 Climbing Cleveland Center
09:41PM 42.2878 -83.2933 36° Northeast 204 235 4,200 2,520 Level Cleveland Center
09:42PM 42.3414 -83.2422 35° Northeast 269 310 6,500 2,700 Climbing Cleveland Center
09:42PM 42.3475 -83.2281 60° Northeast 264 304 7,000 2,640 Climbing Cleveland Center
09:43PM 42.3617 -83.1433 77° East 287 330 9,200 2,400 Climbing Cleveland Center
09:43PM 42.3608 -83.1289 94° East 283 326 9,500 2,160 Climbing Cleveland Center
09:44PM 42.3628 -82.9925 89° East 299 344 12,100 1,920 Climbing Cleveland Center
09:45PM 42.3642 -82.8711 89° East 315 362 13,500 1,260 Climbing Cleveland Center
09:46PM 42.3642 -82.7383 90° East 344 396 14,800 1,260 Climbing Cleveland Center
09:47PM 42.3653 -82.5994 89° East 364 419 16,200 1,260 Climbing Cleveland Center
09:48PM 42.3653 -82.4581 90° East 373 429 17,500 1,140 Climbing Cleveland Center
09:49PM 42.3653 -82.3136 90° East 384 442 18,600 780 Climbing Cleveland Center
09:50PM 42.3658 -82.1622 90° East 399 459 19,100 480 Climbing Cleveland Center
09:51PM 42.3664 -81.9869 90° East 419 482 19,600 480 Climbing Cleveland Center
09:52PM 42.3664 -81.8211 90° East 433 498 20,200 540 Climbing Cleveland Center
09:53PM 42.3664 -81.6519 90° East 442 509 20,700 480 Climbing Cleveland Center
09:54PM 42.3656 -81.4808 90° East 448 516 21,200 480 Climbing Cleveland Center
09:55PM 42.3644 -81.3094 90° East 451 519 21,700 480 Climbing Cleveland Center
09:56PM 42.3631 -81.1372 91° East 452 520 22,200 480 Climbing Cleveland Center
09:57PM 42.3611 -80.9644 91° East 454 522 22,700 480 Climbing Cleveland Center
09:58PM 42.3603 -80.7933 90° East 452 520 23,200 480 Climbing Cleveland Center
09:59PM 42.3581 -80.6217 91° East 451 519 23,700 540 Climbing Cleveland Center
10:00PM 42.3556 -80.4200 91° East 457 526 24,300 480 Climbing Cleveland Center
10:01PM 42.3536 -80.2478 91° East 456 525 24,800 300 Climbing Cleveland Center
10:02PM 42.3506 -80.0731 91° East 462 532 25,000 60 Climbing Cleveland Center
10:03PM 42.3472 -79.8931 91° East 470 541 25,000  Level Cleveland Center
10:04PM 42.3436 -79.7153 92° East 476 548 25,000  Level Cleveland Center
10:05PM 42.3400 -79.5353 91° East 481 554 25,000  Level Cleveland Center
10:06PM 42.3356 -79.3556 92° East 481 554 25,000  Level Cleveland Center
10:07PM 42.3319 -79.1739 91° East 485 558 25,000  Level Cleveland Center
10:08PM 42.3269 -78.9917 92° East 487 560 25,000  Level Cleveland Center
10:09PM 42.3219 -78.7972 92° East 483 556 25,000  Level Cleveland Center
10:10PM 42.3167 -78.6136 92° East 490 564 25,000  Level Cleveland Center
10:12PM 42.3111 -78.4308 92° East 490 564 25,000 -240 Level Cleveland Center
10:13PM 42.3050 -78.2497 93° East 488 562 24,600 -960 Descending Cleveland Center
10:14PM 42.2994 -78.0717 92° East 483 556 23,100 -1,680 Descending Cleveland Center
10:15PM 42.2931 -77.8636 92° East 472 543 21,300 -1,620 Descending Cleveland Center
10:16PM 42.2864 -77.6950 93° East 461 531 19,800 -1,500 Descending Cleveland Center
10:17PM 42.2794 -77.5306 93° East 450 518 18,300 -1,380 Descending Cleveland Center
10:18PM 42.2733 -77.3686 93° East 441 507 17,100 -600 Descending Cleveland Center
10:19PM 42.2664 -77.2056 93° East 439 505 17,100 -60 Level Cleveland Center
10:19PM 42.2603 -77.0722 93° East 446 513 17,000 -1,080 Descending New York Center
10:20PM 42.2517 -76.9172 94° East 441 507 15,300 -1,860 Descending New York Center
10:21PM 42.2481 -76.7797 92° East 407 468 13,300 -1,920 Descending New York Center
10:22PM 42.2381 -76.6497 96° East 370 426 11,500 -1,800 Descending New York Center
10:23PM 42.2394 -76.5322 89° East 339 390 9,700 -1,860 Descending New York Center
10:24PM 42.2450 -76.4181 86° East 315 362 7,800 -1,920 Descending New York Center
10:25PM 42.2522 -76.3122 85° East 293 337 5,900 -1,440 Descending New York Center
10:26PM 42.2522 -76.2197 90° East 269 310 5,000 -960 Descending New York Center
10:27PM 42.2372 -76.1344 103° East 243 280 4,000 -840 Descending New York Center
10:28PM 42.1811 -76.0878 148° Southeast 216 249 3,400 -300 Descending New York Center
10:29PM 42.1294 -76.0361 143° Southeast 221 254 3,400 -120 Level New York Center
10:30PM 42.1219 -75.9686 98° East 192 221 3,200 -360 Descending New York Center
10:31PM 42.1544 -75.9375 35° Northeast 130 150 2,700 -660 Descending New York Center
10:32PM 42.1847 -75.9622 329° Northwest 76 87 1,900 -420 Descending New York Center
10:33PM 42.2017 -75.9525 23° Northeast 76 87 1,900  Level New York Center